createdAt,value
2023-05-09T00:00:14.842Z,10.50
2023-05-09T00:02:46.219Z,10.50
2023-05-09T00:05:15.378Z,10.40
2023-05-09T00:07:43.247Z,10.40
2023-05-09T00:10:11.124Z,10.30
2023-05-09T00:12:38.840Z,10.40
2023-05-09T00:15:10.041Z,10.40
2023-05-09T00:17:38.854Z,10.30
2023-05-09T00:20:12.506Z,10.40
2023-05-09T00:22:41.252Z,10.30
2023-05-09T00:25:10.858Z,10.30
2023-05-09T00:27:38.604Z,10.30
2023-05-09T00:30:07.416Z,10.30
2023-05-09T00:32:35.134Z,10.20
2023-05-09T00:35:03.202Z,10.20
2023-05-09T00:37:31.684Z,10.10
2023-05-09T00:39:59.354Z,10.10
2023-05-09T00:42:26.858Z,10.00
2023-05-09T00:44:54.327Z,10.00
2023-05-09T00:47:24.339Z,10.00
2023-05-09T00:49:52.019Z,9.90
2023-05-09T00:52:23.421Z,10.00
2023-05-09T00:54:55.645Z,9.90
2023-05-09T00:57:23.621Z,9.90
2023-05-09T00:59:51.158Z,9.90
2023-05-09T01:02:19.259Z,9.90
2023-05-09T01:04:47.399Z,9.90
2023-05-09T01:07:38.685Z,9.80
2023-05-09T01:10:46.004Z,9.80
2023-05-09T01:13:19.335Z,9.70
2023-05-09T01:16:00.275Z,9.70
2023-05-09T01:18:44.877Z,9.60
2023-05-09T01:21:19.643Z,9.60
2023-05-09T01:24:16.705Z,9.50
2023-05-09T01:27:06.831Z,9.50
2023-05-09T01:29:42.673Z,9.50
2023-05-09T01:32:19.963Z,9.40
2023-05-09T01:34:50.185Z,9.40
2023-05-09T01:37:24.245Z,9.40
2023-05-09T01:39:56.504Z,9.40
2023-05-09T01:42:28.210Z,9.30
2023-05-09T01:44:56.313Z,9.30
2023-05-09T01:47:27.270Z,9.20
2023-05-09T01:49:56.465Z,9.20
2023-05-09T01:52:25.793Z,9.10
2023-05-09T01:54:53.843Z,9.10
2023-05-09T01:57:23.472Z,9.00
2023-05-09T01:59:52.558Z,9.00
2023-05-09T02:02:20.353Z,9.00
2023-05-09T02:04:49.196Z,8.90
2023-05-09T02:07:17.210Z,8.90
2023-05-09T02:09:45.658Z,8.80
2023-05-09T02:12:13.260Z,8.80
2023-05-09T02:14:40.769Z,8.70
2023-05-09T02:17:09.640Z,8.70
2023-05-09T02:19:37.049Z,8.80
2023-05-09T02:22:05.154Z,8.80
2023-05-09T02:24:36.749Z,8.70
2023-05-09T02:27:05.406Z,8.70
2023-05-09T02:29:40.709Z,8.70
2023-05-09T02:32:19.206Z,8.70
2023-05-09T02:34:47.477Z,8.60
2023-05-09T02:37:16.435Z,8.60
2023-05-09T02:39:44.554Z,8.60
2023-05-09T02:42:14.720Z,8.60
2023-05-09T02:44:42.057Z,8.60
2023-05-09T02:47:09.502Z,8.60
2023-05-09T02:49:37.016Z,8.60
2023-05-09T02:52:06.182Z,8.60
2023-05-09T02:54:33.595Z,8.60
2023-05-09T02:57:01.091Z,8.60
2023-05-09T02:59:28.957Z,8.60
2023-05-09T03:01:57.664Z,8.50
2023-05-09T03:04:28.197Z,8.50
2023-05-09T03:06:55.879Z,8.40
2023-05-09T03:09:25.010Z,8.40
2023-05-09T03:11:52.540Z,8.40
2023-05-09T03:14:19.866Z,8.40
2023-05-09T03:16:47.379Z,8.40
2023-05-09T03:19:23.031Z,8.40
2023-05-09T03:21:50.726Z,8.40
2023-05-09T03:24:18.282Z,8.30
2023-05-09T03:26:45.633Z,8.30
2023-05-09T03:29:13.125Z,8.30
2023-05-09T03:31:40.736Z,8.30
2023-05-09T03:34:13.083Z,8.40
2023-05-09T03:36:42.706Z,8.40
2023-05-09T03:39:12.606Z,8.40
2023-05-09T03:41:43.669Z,8.50
2023-05-09T03:44:11.365Z,8.50
2023-05-09T03:46:38.832Z,8.60
2023-05-09T03:49:06.867Z,8.70
2023-05-09T03:51:35.327Z,8.70
2023-05-09T03:54:05.701Z,8.80
2023-05-09T03:56:33.118Z,8.80
2023-05-09T03:59:00.773Z,8.80
2023-05-09T04:01:29.018Z,8.80
2023-05-09T04:03:58.736Z,8.90
2023-05-09T04:06:27.777Z,9.00
2023-05-09T04:08:55.277Z,9.10
2023-05-09T04:11:22.697Z,9.20
2023-05-09T04:13:50.663Z,9.30
2023-05-09T04:16:34.097Z,9.40
2023-05-09T04:19:01.561Z,9.60
2023-05-09T04:21:30.021Z,9.70
2023-05-09T04:24:03.144Z,9.80
2023-05-09T04:26:39.119Z,9.90
2023-05-09T04:29:09.504Z,10.00
2023-05-09T04:31:37.104Z,10.10
2023-05-09T04:34:06.622Z,10.30
2023-05-09T04:36:53.601Z,10.50
2023-05-09T04:39:30.674Z,10.70
2023-05-09T04:42:05.518Z,10.80
2023-05-09T04:44:33.440Z,10.90
2023-05-09T04:47:01.168Z,11.10
2023-05-09T04:49:28.676Z,11.20
2023-05-09T04:51:57.012Z,11.40
2023-05-09T04:54:24.499Z,11.60
2023-05-09T04:57:00.320Z,11.60
2023-05-09T04:59:36.657Z,11.50
2023-05-09T05:02:04.387Z,11.60
2023-05-09T05:04:32.635Z,11.70
2023-05-09T05:07:01.283Z,11.90
2023-05-09T05:09:29.386Z,12.10
2023-05-09T05:12:01.835Z,12.30
2023-05-09T05:14:31.519Z,12.40
2023-05-09T05:16:59.040Z,12.30
2023-05-09T05:19:26.685Z,12.40
2023-05-09T05:21:55.331Z,12.50
2023-05-09T05:24:24.025Z,12.80
2023-05-09T05:26:51.505Z,12.90
2023-05-09T05:29:20.444Z,13.00
2023-05-09T05:31:47.681Z,13.00
2023-05-09T05:34:16.574Z,13.00
2023-05-09T05:36:44.731Z,13.10
2023-05-09T05:39:12.456Z,13.20
2023-05-09T05:41:40.715Z,13.40
2023-05-09T05:44:08.568Z,13.70
2023-05-09T05:46:36.201Z,14.00
2023-05-09T05:49:04.082Z,14.00
2023-05-09T05:51:31.663Z,14.20
2023-05-09T05:54:02.427Z,14.50
2023-05-09T05:56:29.831Z,14.70
2023-05-09T05:58:58.073Z,14.70
2023-05-09T06:01:28.608Z,14.70
2023-05-09T06:03:57.928Z,14.60
2023-05-09T06:06:29.275Z,14.50
2023-05-09T06:09:03.502Z,14.40
2023-05-09T06:11:31.294Z,14.40
2023-05-09T06:14:02.571Z,14.40
2023-05-09T06:16:30.251Z,14.50
2023-05-09T06:18:57.685Z,15.10
2023-05-09T06:21:25.065Z,14.70
2023-05-09T06:24:08.353Z,14.90
2023-05-09T06:26:39.718Z,15.20
2023-05-09T06:29:19.117Z,15.10
2023-05-09T06:31:49.947Z,15.20
2023-05-09T06:34:18.189Z,15.40
2023-05-09T06:36:46.139Z,15.60
2023-05-09T06:39:13.574Z,15.70
2023-05-09T06:41:41.401Z,16.00
2023-05-09T06:44:10.564Z,16.10
2023-05-09T06:46:38.369Z,16.10
2023-05-09T06:49:13.672Z,15.90
2023-05-09T06:51:41.041Z,16.00
2023-05-09T06:54:10.752Z,16.20
2023-05-09T06:56:38.466Z,16.30
2023-05-09T06:59:13.833Z,16.50
2023-05-09T07:01:44.685Z,16.50
2023-05-09T07:04:15.172Z,16.70
2023-05-09T07:06:45.242Z,16.60
2023-05-09T07:09:20.538Z,16.70
2023-05-09T07:11:47.957Z,16.90
2023-05-09T07:14:16.182Z,16.80
2023-05-09T07:16:43.732Z,16.80
2023-05-09T07:19:13.701Z,16.80
2023-05-09T07:21:43.282Z,16.80
2023-05-09T07:24:13.806Z,16.90
2023-05-09T07:26:41.042Z,17.00
2023-05-09T07:29:08.241Z,17.10
2023-05-09T07:31:37.354Z,17.10
2023-05-09T07:34:04.730Z,17.20
2023-05-09T07:36:33.212Z,17.40
2023-05-09T07:39:01.934Z,17.50
2023-05-09T07:41:29.034Z,17.60
2023-05-09T07:43:56.520Z,18.20
2023-05-09T07:46:23.732Z,17.50
2023-05-09T07:48:51.034Z,17.40
2023-05-09T07:51:18.278Z,17.20
2023-05-09T07:53:45.392Z,17.30
2023-05-09T07:56:13.399Z,17.20
2023-05-09T07:58:41.173Z,17.20
2023-05-09T08:01:08.424Z,17.60
2023-05-09T08:03:35.925Z,17.90
2023-05-09T08:06:03.424Z,18.20
2023-05-09T08:08:30.757Z,18.30
2023-05-09T08:10:58.050Z,18.40
2023-05-09T08:13:25.797Z,18.20
2023-05-09T08:15:53.248Z,18.40
2023-05-09T08:18:20.985Z,18.50
2023-05-09T08:20:48.210Z,18.60
2023-05-09T08:23:15.382Z,18.50
2023-05-09T08:25:43.134Z,19.00
2023-05-09T08:28:10.884Z,19.10
2023-05-09T08:30:38.153Z,19.20
2023-05-09T08:33:05.428Z,19.20
2023-05-09T08:35:32.666Z,18.80
2023-05-09T08:37:59.776Z,18.90
2023-05-09T08:40:27.045Z,19.00
2023-05-09T08:42:54.546Z,19.10
2023-05-09T08:45:29.884Z,19.00
2023-05-09T08:47:57.815Z,19.30
2023-05-09T08:50:25.703Z,19.50
2023-05-09T08:52:53.621Z,19.60
2023-05-09T08:55:21.697Z,19.60
2023-05-09T08:57:49.636Z,19.50
2023-05-09T09:00:20.835Z,19.20
2023-05-09T09:02:49.223Z,19.30
2023-05-09T09:05:39.444Z,19.30
2023-05-09T09:08:07.329Z,19.40
2023-05-09T09:10:35.423Z,19.30
2023-05-09T09:13:05.081Z,19.30
2023-05-09T09:15:37.202Z,19.70
2023-05-09T09:18:10.104Z,19.90
2023-05-09T09:20:46.187Z,19.80
2023-05-09T09:23:21.096Z,20.10
2023-05-09T09:25:48.953Z,20.20
2023-05-09T09:28:16.120Z,20.00
2023-05-09T09:30:48.442Z,20.00
2023-05-09T09:33:23.908Z,20.10
2023-05-09T09:35:52.843Z,20.60
2023-05-09T09:38:22.492Z,20.50
2023-05-09T09:40:57.430Z,20.40
2023-05-09T09:43:32.158Z,20.70
2023-05-09T09:46:04.068Z,20.80
2023-05-09T09:48:35.868Z,20.50
2023-05-09T09:51:11.400Z,20.50
2023-05-09T09:53:43.688Z,20.80
2023-05-09T09:56:11.398Z,20.90
2023-05-09T09:58:39.034Z,21.00
2023-05-09T10:01:14.109Z,21.10
2023-05-09T10:03:46.333Z,20.90
2023-05-09T10:06:16.017Z,20.50
2023-05-09T10:08:47.287Z,21.00
2023-05-09T10:11:15.413Z,21.00
2023-05-09T10:13:43.727Z,21.20
2023-05-09T10:16:12.906Z,21.40
2023-05-09T10:18:43.018Z,21.40
2023-05-09T10:21:14.747Z,21.60
2023-05-09T10:23:47.005Z,21.70
2023-05-09T10:26:23.557Z,21.70
2023-05-09T10:28:55.800Z,22.10
2023-05-09T10:31:27.324Z,22.20
2023-05-09T10:33:56.006Z,22.30
2023-05-09T10:36:26.629Z,22.20
2023-05-09T10:38:55.598Z,21.90
2023-05-09T10:41:28.726Z,22.60
2023-05-09T10:43:58.485Z,23.20
2023-05-09T10:46:27.333Z,24.30
2023-05-09T10:48:55.524Z,24.80
2023-05-09T10:51:24.703Z,25.00
2023-05-09T10:53:52.433Z,25.10
2023-05-09T10:56:34.025Z,24.90
2023-05-09T10:59:01.554Z,24.80
2023-05-09T11:01:39.078Z,25.30
2023-05-09T11:04:15.120Z,25.70
2023-05-09T11:06:47.600Z,26.00
2023-05-09T11:09:53.845Z,26.30
2023-05-09T11:12:24.045Z,26.60
2023-05-09T11:14:56.312Z,26.40
2023-05-09T11:17:24.646Z,26.00
2023-05-09T11:19:52.061Z,25.80
2023-05-09T11:22:27.496Z,26.00
2023-05-09T11:25:02.322Z,26.00
2023-05-09T11:27:37.182Z,25.70
2023-05-09T11:30:07.669Z,25.20
2023-05-09T11:32:59.172Z,25.30
2023-05-09T11:35:27.593Z,24.60
2023-05-09T11:38:06.567Z,24.40
2023-05-09T11:40:36.293Z,24.70
2023-05-09T11:43:03.822Z,25.10
2023-05-09T11:45:33.412Z,25.30
2023-05-09T11:48:01.338Z,25.90
2023-05-09T11:50:29.328Z,25.80
2023-05-09T11:52:56.522Z,25.60
2023-05-09T11:55:25.630Z,26.00
2023-05-09T11:57:54.450Z,26.70
2023-05-09T12:00:25.751Z,26.00
2023-05-09T12:02:53.632Z,26.60
2023-05-09T12:05:23.199Z,26.10
2023-05-09T12:07:50.945Z,26.40
2023-05-09T12:10:23.409Z,27.10
2023-05-09T12:12:55.344Z,27.20
2023-05-09T12:15:23.145Z,27.20
2023-05-09T12:18:09.044Z,27.00
2023-05-09T12:20:51.274Z,27.50
2023-05-09T12:23:19.132Z,27.70
2023-05-09T12:25:56.945Z,26.70
2023-05-09T12:28:25.603Z,27.20
2023-05-09T12:30:54.047Z,27.30
2023-05-09T12:33:22.367Z,27.90
2023-05-09T12:36:13.724Z,28.40
2023-05-09T12:38:42.128Z,28.60
2023-05-09T12:41:22.444Z,28.50
2023-05-09T12:43:58.370Z,27.60
2023-05-09T12:46:25.732Z,28.20
2023-05-09T12:48:53.091Z,28.70
2023-05-09T12:51:22.072Z,29.10
2023-05-09T12:53:49.977Z,29.80
2023-05-09T12:56:23.519Z,29.90
2023-05-09T12:58:53.249Z,29.90
2023-05-09T13:01:28.654Z,31.10
2023-05-09T13:04:05.140Z,29.90
2023-05-09T13:06:33.140Z,29.40
2023-05-09T13:09:02.970Z,28.30
2023-05-09T13:11:30.569Z,28.00
2023-05-09T13:13:58.750Z,27.40
2023-05-09T13:16:26.207Z,27.30
2023-05-09T13:18:53.520Z,27.00
2023-05-09T13:21:21.101Z,27.30
2023-05-09T13:23:50.093Z,26.80
2023-05-09T13:26:17.482Z,27.00
2023-05-09T13:28:44.879Z,27.10
2023-05-09T13:31:12.148Z,27.40
2023-05-09T13:33:39.479Z,27.50
2023-05-09T13:36:07.210Z,28.20
2023-05-09T13:38:38.850Z,29.20
2023-05-09T13:41:07.383Z,30.00
2023-05-09T13:43:35.649Z,30.80
2023-05-09T13:46:03.484Z,30.10
2023-05-09T13:48:30.754Z,30.10
2023-05-09T13:50:59.833Z,29.00
2023-05-09T13:53:27.356Z,26.40
2023-05-09T13:55:54.518Z,24.40
2023-05-09T13:58:21.706Z,22.90
2023-05-09T14:00:48.872Z,22.20
2023-05-09T14:03:16.619Z,21.70
2023-05-09T14:05:43.929Z,21.30
2023-05-09T14:08:11.178Z,21.10
2023-05-09T14:10:38.377Z,21.10
2023-05-09T14:13:05.655Z,21.10
2023-05-09T14:15:33.220Z,21.10
2023-05-09T14:18:00.737Z,21.00
2023-05-09T14:20:28.382Z,20.90
2023-05-09T14:22:59.677Z,20.80
2023-05-09T14:25:27.296Z,20.90
2023-05-09T14:27:54.864Z,20.90
2023-05-09T14:30:23.072Z,20.70
2023-05-09T14:32:50.858Z,20.70
2023-05-09T14:35:18.566Z,20.70
2023-05-09T14:37:45.951Z,20.60
2023-05-09T14:40:14.918Z,20.60
2023-05-09T14:42:42.562Z,20.40
2023-05-09T14:45:12.715Z,20.00
2023-05-09T14:47:41.181Z,20.30
2023-05-09T14:50:11.334Z,20.30
2023-05-09T14:52:38.557Z,20.30
2023-05-09T14:55:07.422Z,20.20
2023-05-09T14:57:34.585Z,20.20
2023-05-09T15:00:16.751Z,20.20
2023-05-09T15:02:47.428Z,20.20
2023-05-09T15:05:14.822Z,20.30
2023-05-09T15:07:41.954Z,20.50
2023-05-09T15:10:09.923Z,20.50
2023-05-09T15:12:37.161Z,20.30
2023-05-09T15:15:17.977Z,20.30
2023-05-09T15:17:46.372Z,20.20
2023-05-09T15:20:20.397Z,20.30
2023-05-09T15:22:49.629Z,20.40
2023-05-09T15:25:17.875Z,20.40
2023-05-09T15:27:45.139Z,20.30
2023-05-09T15:30:13.025Z,20.30
2023-05-09T15:32:43.533Z,20.30
2023-05-09T15:35:18.522Z,20.30
2023-05-09T15:37:46.120Z,20.30
2023-05-09T15:40:13.827Z,20.20
2023-05-09T15:42:41.473Z,20.20
2023-05-09T15:45:10.053Z,20.20
2023-05-09T15:47:37.560Z,20.10
2023-05-09T15:50:05.499Z,20.10
2023-05-09T15:52:33.012Z,20.10
2023-05-09T15:55:01.089Z,20.10
2023-05-09T15:57:28.739Z,20.10
2023-05-09T15:59:56.164Z,20.10
2023-05-09T16:02:24.909Z,20.00
2023-05-09T16:04:52.508Z,19.80
2023-05-09T16:07:20.743Z,19.70
2023-05-09T16:09:48.445Z,19.70
2023-05-09T16:12:16.109Z,19.70
2023-05-09T16:14:43.538Z,19.70
2023-05-09T16:17:11.524Z,19.70
2023-05-09T16:19:38.875Z,19.80
2023-05-09T16:22:06.248Z,19.80
2023-05-09T16:24:33.783Z,19.70
2023-05-09T16:27:01.140Z,19.70
2023-05-09T16:29:28.638Z,19.60
2023-05-09T16:31:56.175Z,19.40
2023-05-09T16:34:23.624Z,18.80
2023-05-09T16:36:52.371Z,19.40
2023-05-09T16:39:19.868Z,19.40
2023-05-09T16:41:47.308Z,19.40
2023-05-09T16:44:15.443Z,19.30
2023-05-09T16:46:43.051Z,19.30
2023-05-09T16:49:11.182Z,19.30
2023-05-09T16:51:38.788Z,19.30
2023-05-09T16:54:06.730Z,19.30
2023-05-09T16:56:35.180Z,19.30
2023-05-09T16:59:03.046Z,19.20
2023-05-09T17:01:30.589Z,19.10
2023-05-09T17:03:57.987Z,19.10
2023-05-09T17:06:26.275Z,19.00
2023-05-09T17:08:53.818Z,19.00
2023-05-09T17:11:22.649Z,19.00
2023-05-09T17:13:50.129Z,18.90
2023-05-09T17:16:17.436Z,18.90
2023-05-09T17:18:47.452Z,18.80
2023-05-09T17:21:16.038Z,18.80
2023-05-09T17:23:43.585Z,18.60
2023-05-09T17:26:11.011Z,18.60
2023-05-09T17:28:38.556Z,18.50
2023-05-09T17:31:05.905Z,18.50
2023-05-09T17:33:33.175Z,18.40
2023-05-09T17:36:00.407Z,18.30
2023-05-09T17:38:27.622Z,18.20
2023-05-09T17:40:54.978Z,18.10
2023-05-09T17:43:24.198Z,18.00
2023-05-09T17:45:52.457Z,18.00
2023-05-09T17:48:19.993Z,17.90
2023-05-09T17:50:47.389Z,17.90
2023-05-09T17:53:14.614Z,17.80
2023-05-09T17:55:42.650Z,17.80
2023-05-09T17:58:09.962Z,17.70
2023-05-09T18:00:37.597Z,17.70
2023-05-09T18:03:05.255Z,17.60
2023-05-09T18:05:32.613Z,17.60
2023-05-09T18:08:01.462Z,17.50
2023-05-09T18:10:29.221Z,17.50
2023-05-09T18:12:56.664Z,17.40
2023-05-09T18:15:26.137Z,17.40
2023-05-09T18:17:54.844Z,17.30
2023-05-09T18:20:22.255Z,17.20
2023-05-09T18:22:49.486Z,17.10
2023-05-09T18:25:17.259Z,17.10
2023-05-09T18:27:44.521Z,17.10
2023-05-09T18:30:12.448Z,17.00
2023-05-09T18:32:40.561Z,17.00
2023-05-09T18:35:09.237Z,16.90
2023-05-09T18:37:36.993Z,16.90
2023-05-09T18:40:05.551Z,16.80
2023-05-09T18:42:32.762Z,16.70
2023-05-09T18:45:00.880Z,16.70
2023-05-09T18:47:28.294Z,16.60
2023-05-09T18:49:55.499Z,16.60
2023-05-09T18:52:22.755Z,16.50
2023-05-09T18:54:49.991Z,16.40
2023-05-09T18:57:17.241Z,16.40
2023-05-09T18:59:44.811Z,16.30
2023-05-09T19:02:12.218Z,16.30
2023-05-09T19:04:42.534Z,16.20
2023-05-09T19:07:10.182Z,16.20
2023-05-09T19:09:40.360Z,16.10
2023-05-09T19:12:13.464Z,16.10
2023-05-09T19:14:43.938Z,16.00
2023-05-09T19:17:14.124Z,16.00
2023-05-09T19:19:42.515Z,15.90
2023-05-09T19:22:10.878Z,15.90
2023-05-09T19:24:38.269Z,15.70
2023-05-09T19:27:07.200Z,15.60
2023-05-09T19:29:35.199Z,15.70
2023-05-09T19:32:04.719Z,15.70
2023-05-09T19:34:32.488Z,15.60
2023-05-09T19:37:03.543Z,15.90
2023-05-09T19:39:30.778Z,15.50
2023-05-09T19:42:00.878Z,15.40
2023-05-09T19:44:28.552Z,15.40
2023-05-09T19:46:58.435Z,15.40
2023-05-09T19:49:26.750Z,15.30
2023-05-09T19:51:54.289Z,15.20
2023-05-09T19:54:26.236Z,15.10
2023-05-09T19:56:56.150Z,15.10
2023-05-09T19:59:25.377Z,15.00
2023-05-09T20:01:52.803Z,15.00
2023-05-09T20:04:24.058Z,14.90
2023-05-09T20:06:54.687Z,14.90
2023-05-09T20:09:22.900Z,14.80
2023-05-09T20:11:53.728Z,14.80
2023-05-09T20:14:22.301Z,14.80
2023-05-09T20:16:51.325Z,14.70
2023-05-09T20:19:22.011Z,14.70
2023-05-09T20:21:49.973Z,14.70
2023-05-09T20:24:19.197Z,14.70
2023-05-09T20:26:46.553Z,14.60
2023-05-09T20:29:15.636Z,14.60
2023-05-09T20:31:49.284Z,14.70
2023-05-09T20:34:18.247Z,14.50
2023-05-09T20:36:53.236Z,14.50
2023-05-09T20:39:21.983Z,14.50
2023-05-09T20:41:50.770Z,15.00
2023-05-09T20:44:18.633Z,14.40
2023-05-09T20:46:46.445Z,14.40
2023-05-09T20:49:14.680Z,14.30
2023-05-09T20:51:42.381Z,14.30
2023-05-09T20:54:10.659Z,14.30
2023-05-09T20:56:38.441Z,14.30
2023-05-09T20:59:06.062Z,14.20
2023-05-09T21:01:36.823Z,14.20
2023-05-09T21:04:05.652Z,14.10
2023-05-09T21:06:33.175Z,14.10
2023-05-09T21:09:00.533Z,14.10
2023-05-09T21:11:27.668Z,14.10
2023-05-09T21:13:54.833Z,14.00
2023-05-09T21:16:26.223Z,14.00
2023-05-09T21:18:53.481Z,13.90
2023-05-09T21:21:20.703Z,13.90
2023-05-09T21:23:47.962Z,13.90
2023-05-09T21:26:15.088Z,13.90
2023-05-09T21:28:42.307Z,13.80
2023-05-09T21:31:11.251Z,13.80
2023-05-09T21:33:38.833Z,13.80
2023-05-09T21:36:07.726Z,13.70
2023-05-09T21:38:34.902Z,13.70
2023-05-09T21:41:02.067Z,13.70
2023-05-09T21:43:29.224Z,13.70
2023-05-09T21:45:56.809Z,13.60
2023-05-09T21:48:24.013Z,13.60
2023-05-09T21:50:51.173Z,13.60
2023-05-09T21:53:18.480Z,13.60
2023-05-09T21:55:45.760Z,13.50
2023-05-09T21:58:12.970Z,13.50
2023-05-09T22:00:40.302Z,13.50
2023-05-09T22:03:07.742Z,13.50
2023-05-09T22:05:35.274Z,13.40
2023-05-09T22:08:07.036Z,13.40
2023-05-09T22:10:34.950Z,13.40
2023-05-09T22:13:02.217Z,13.40
2023-05-09T22:15:29.564Z,13.40
2023-05-09T22:17:56.722Z,13.40
2023-05-09T22:20:24.183Z,13.40
2023-05-09T22:22:51.384Z,13.30
2023-05-09T22:25:18.734Z,13.30
2023-05-09T22:27:45.968Z,13.20
2023-05-09T22:30:13.635Z,13.20
2023-05-09T22:32:41.003Z,13.20
2023-05-09T22:35:08.775Z,13.10
2023-05-09T22:37:36.238Z,13.10
2023-05-09T22:40:03.904Z,13.00
2023-05-09T22:42:31.163Z,13.00
2023-05-09T22:44:58.295Z,13.00
2023-05-09T22:47:25.542Z,12.90
2023-05-09T22:49:53.237Z,12.90
2023-05-09T22:52:20.658Z,12.90
2023-05-09T22:54:47.812Z,12.80
2023-05-09T22:57:17.745Z,12.80
2023-05-09T22:59:45.418Z,12.80
2023-05-09T23:02:13.203Z,12.70
2023-05-09T23:04:40.475Z,12.70
2023-05-09T23:07:07.808Z,12.70
2023-05-09T23:09:35.012Z,12.70
2023-05-09T23:12:02.663Z,12.60
2023-05-09T23:14:30.004Z,12.50
2023-05-09T23:16:57.286Z,12.60
2023-05-09T23:19:24.452Z,12.60
2023-05-09T23:21:51.616Z,12.50
2023-05-09T23:24:18.809Z,12.50
2023-05-09T23:26:45.990Z,12.40
2023-05-09T23:29:13.151Z,12.40
2023-05-09T23:31:40.676Z,12.30
2023-05-09T23:34:07.954Z,12.30
2023-05-09T23:36:35.175Z,12.30
2023-05-09T23:39:02.296Z,12.20
2023-05-09T23:41:29.605Z,12.20
2023-05-09T23:43:58.196Z,12.20
2023-05-09T23:46:25.308Z,12.20
2023-05-09T23:48:52.433Z,12.10
2023-05-09T23:51:21.595Z,12.10
2023-05-09T23:53:49.401Z,12.00
2023-05-09T23:56:16.518Z,12.00
2023-05-09T23:58:43.749Z,12.00
